sensor_id;sensor_type;location;lat;lon;timestamp;pressure;altitude;pressure_sealevel;temperature;humidity
72525;BME280;60547;48.502;8.996;2023-05-14T00:01:53;97882.47;;;10.56;97.15
72525;BME280;60547;48.502;8.996;2023-05-14T00:04:18;97878.47;;;10.57;97.27
72525;BME280;60547;48.502;8.996;2023-05-14T00:06:44;97889.84;;;10.62;97.27
72525;BME280;60547;48.502;8.996;2023-05-14T00:09:11;97880.56;;;10.53;97.55
72525;BME280;60547;48.502;8.996;2023-05-14T00:11:37;97892.72;;;10.59;97.71
72525;BME280;60547;48.502;8.996;2023-05-14T00:14:03;97889.16;;;10.58;97.83
72525;BME280;60547;48.502;8.996;2023-05-14T00:16:28;97876.22;;;10.52;97.81
72525;BME280;60547;48.502;8.996;2023-05-14T00:18:54;97889.84;;;10.62;98.17
72525;BME280;60547;48.502;8.996;2023-05-14T00:21:19;97858.06;;;10.47;97.92
72525;BME280;60547;48.502;8.996;2023-05-14T00:23:45;97869.00;;;10.54;98.08
72525;BME280;60547;48.502;8.996;2023-05-14T00:26:10;97874.03;;;10.59;98.57
72525;BME280;60547;48.502;8.996;2023-05-14T00:28:36;97829.91;;;10.29;98.37
72525;BME280;60547;48.502;8.996;2023-05-14T00:31:01;97869.34;;;10.56;98.95
72525;BME280;60547;48.502;8.996;2023-05-14T00:33:27;97875.16;;;10.62;98.87
72525;BME280;60547;48.502;8.996;2023-05-14T00:35:52;97849.19;;;10.52;98.30
72525;BME280;60547;48.502;8.996;2023-05-14T00:38:18;97870.72;;;10.64;98.84
72525;BME280;60547;48.502;8.996;2023-05-14T00:40:44;97815.66;;;10.27;98.68
72525;BME280;60547;48.502;8.996;2023-05-14T00:43:17;97857.78;;;10.58;98.78
72525;BME280;60547;48.502;8.996;2023-05-14T00:45:43;97863.25;;;10.61;98.51
72525;BME280;60547;48.502;8.996;2023-05-14T00:48:09;97841.81;;;10.46;98.43
72525;BME280;60547;48.502;8.996;2023-05-14T00:50:35;97840.69;;;10.43;98.39
72525;BME280;60547;48.502;8.996;2023-05-14T00:53:00;97858.75;;;10.51;98.80
72525;BME280;60547;48.502;8.996;2023-05-14T00:55:28;97842.94;;;10.48;98.65
72525;BME280;60547;48.502;8.996;2023-05-14T00:57:55;97846.94;;;10.47;98.46
72525;BME280;60547;48.502;8.996;2023-05-14T01:00:22;97843.28;;;10.50;98.77
72525;BME280;60547;48.502;8.996;2023-05-14T01:02:47;97813.91;;;10.33;98.48
72525;BME280;60547;48.502;8.996;2023-05-14T01:05:13;97830.44;;;10.40;98.62
72525;BME280;60547;48.502;8.996;2023-05-14T01:08:08;97830.44;;;10.40;98.93
72525;BME280;60547;48.502;8.996;2023-05-14T01:11:05;97838.44;;;10.38;99.10
72525;BME280;60547;48.502;8.996;2023-05-14T01:16:20;97843.56;;;10.40;99.32
72525;BME280;60547;48.502;8.996;2023-05-14T01:18:49;97849.38;;;10.45;99.30
72525;BME280;60547;48.502;8.996;2023-05-14T01:21:37;97837.03;;;10.46;99.02
72525;BME280;60547;48.502;8.996;2023-05-14T01:24:05;97836.00;;;10.40;99.00
72525;BME280;60547;48.502;8.996;2023-05-14T01:26:30;97841.72;;;10.49;98.83
72525;BME280;60547;48.502;8.996;2023-05-14T01:29:04;97817.13;;;10.31;99.07
72525;BME280;60547;48.502;8.996;2023-05-14T01:31:35;97835.91;;;10.44;99.40
72525;BME280;60547;48.502;8.996;2023-05-14T01:34:03;97783.59;;;10.06;99.28
72525;BME280;60547;48.502;8.996;2023-05-14T01:36:30;97795.50;;;10.07;99.80
72525;BME280;60547;48.502;8.996;2023-05-14T01:38:58;97824.69;;;10.31;99.97
72525;BME280;60547;48.502;8.996;2023-05-14T01:41:25;97832.88;;;10.38;99.92
72525;BME280;60547;48.502;8.996;2023-05-14T01:43:51;97833.56;;;10.42;99.73
72525;BME280;60547;48.502;8.996;2023-05-14T01:46:19;97795.06;;;10.24;99.31
72525;BME280;60547;48.502;8.996;2023-05-14T01:48:44;97822.09;;;10.40;98.70
72525;BME280;60547;48.502;8.996;2023-05-14T01:51:10;97831.13;;;10.44;99.37
72525;BME280;60547;48.502;8.996;2023-05-14T01:53:35;97765.09;;;9.99;98.97
72525;BME280;60547;48.502;8.996;2023-05-14T01:56:01;97798.28;;;10.23;99.47
72525;BME280;60547;48.502;8.996;2023-05-14T01:58:26;97803.06;;;10.22;99.62
72525;BME280;60547;48.502;8.996;2023-05-14T02:00:52;97826.09;;;10.39;99.43
72525;BME280;60547;48.502;8.996;2023-05-14T02:03:17;97835.31;;;10.36;99.63
72525;BME280;60547;48.502;8.996;2023-05-14T02:05:43;97820.34;;;10.30;99.85
72525;BME280;60547;48.502;8.996;2023-05-14T02:08:08;97813.31;;;10.25;99.90
72525;BME280;60547;48.502;8.996;2023-05-14T02:10:33;97813.22;;;10.29;99.90
72525;BME280;60547;48.502;8.996;2023-05-14T02:12:59;97825.91;;;10.30;99.89
72525;BME280;60547;48.502;8.996;2023-05-14T02:15:25;97823.22;;;10.26;100.00
72525;BME280;60547;48.502;8.996;2023-05-14T02:17:50;97830.59;;;10.33;100.00
72525;BME280;60547;48.502;8.996;2023-05-14T02:20:15;97822.78;;;10.28;99.35
72525;BME280;60547;48.502;8.996;2023-05-14T02:22:41;97829.56;;;10.43;98.97
72525;BME280;60547;48.502;8.996;2023-05-14T02:25:09;97816.78;;;10.29;99.29
72525;BME280;60547;48.502;8.996;2023-05-14T02:27:35;97796.88;;;10.15;99.41
72525;BME280;60547;48.502;8.996;2023-05-14T02:30:01;97832.88;;;10.38;99.16
72525;BME280;60547;48.502;8.996;2023-05-14T02:32:27;97817.22;;;10.28;99.51
72525;BME280;60547;48.502;8.996;2023-05-14T02:34:52;97794.09;;;10.15;99.71
72525;BME280;60547;48.502;8.996;2023-05-14T02:37:18;97811.84;;;10.21;99.99
72525;BME280;60547;48.502;8.996;2023-05-14T02:39:43;97828.28;;;10.31;100.00
72525;BME280;60547;48.502;8.996;2023-05-14T02:42:09;97821.56;;;10.29;100.00
72525;BME280;60547;48.502;8.996;2023-05-14T02:44:35;97804.72;;;10.20;100.00
72525;BME280;60547;48.502;8.996;2023-05-14T02:47:00;97824.09;;;10.23;100.00
72525;BME280;60547;48.502;8.996;2023-05-14T02:49:26;97819.81;;;10.19;100.00
72525;BME280;60547;48.502;8.996;2023-05-14T02:51:51;97836.97;;;10.33;100.00
72525;BME280;60547;48.502;8.996;2023-05-14T02:54:18;97834.78;;;10.25;100.00
72525;BME280;60547;48.502;8.996;2023-05-14T02:56:44;97828.34;;;10.28;100.00
72525;BME280;60547;48.502;8.996;2023-05-14T02:59:09;97817.41;;;10.21;100.00
72525;BME280;60547;48.502;8.996;2023-05-14T03:01:35;97834.97;;;10.34;100.00
72525;BME280;60547;48.502;8.996;2023-05-14T03:04:00;97803.31;;;10.12;100.00
72525;BME280;60547;48.502;8.996;2023-05-14T03:06:26;97809.91;;;10.18;100.00
72525;BME280;60547;48.502;8.996;2023-05-14T03:08:51;97793.94;;;10.06;100.00
72525;BME280;60547;48.502;8.996;2023-05-14T03:11:17;97814.25;;;10.19;100.00
72525;BME280;60547;48.502;8.996;2023-05-14T03:13:42;97801.06;;;10.07;100.00
72525;BME280;60547;48.502;8.996;2023-05-14T03:16:08;97822.78;;;10.28;100.00
72525;BME280;60547;48.502;8.996;2023-05-14T03:18:33;97805.50;;;10.20;100.00
72525;BME280;60547;48.502;8.996;2023-05-14T03:21:01;97835.22;;;10.40;100.00
72525;BME280;60547;48.502;8.996;2023-05-14T03:23:27;97831.75;;;10.35;100.00
72525;BME280;60547;48.502;8.996;2023-05-14T03:25:53;97813.22;;;10.29;100.00
72525;BME280;60547;48.502;8.996;2023-05-14T03:28:18;97814.78;;;10.30;100.00
72525;BME280;60547;48.502;8.996;2023-05-14T03:30:44;97827.66;;;10.40;100.00
72525;BME280;60547;48.502;8.996;2023-05-14T03:33:10;97765.63;;;9.94;100.00
72525;BME280;60547;48.502;8.996;2023-05-14T03:35:35;97828.97;;;10.35;100.00
72525;BME280;60547;48.502;8.996;2023-05-14T03:38:01;97799.84;;;10.24;100.00
72525;BME280;60547;48.502;8.996;2023-05-14T03:40:26;97832.00;;;10.41;100.00
72525;BME280;60547;48.502;8.996;2023-05-14T03:42:52;97830.69;;;10.46;99.91
72525;BME280;60547;48.502;8.996;2023-05-14T03:45:18;97814.63;;;10.37;99.43
72525;BME280;60547;48.502;8.996;2023-05-14T03:47:43;97815.28;;;10.41;99.03
72525;BME280;60547;48.502;8.996;2023-05-14T03:50:09;97814.25;;;10.35;99.94
72525;BME280;60547;48.502;8.996;2023-05-14T03:52:34;97814.25;;;10.35;99.85
72525;BME280;60547;48.502;8.996;2023-05-14T03:55:00;97829.22;;;10.41;99.94
72525;BME280;60547;48.502;8.996;2023-05-14T03:57:25;97826.69;;;10.47;99.89
72525;BME280;60547;48.502;8.996;2023-05-14T03:59:51;97819.50;;;10.33;100.00
72525;BME280;60547;48.502;8.996;2023-05-14T04:02:16;97801.41;;;10.25;100.00
72525;BME280;60547;48.502;8.996;2023-05-14T04:04:41;97839.03;;;10.46;100.00
72525;BME280;60547;48.502;8.996;2023-05-14T04:07:07;97824.78;;;10.44;100.00
72525;BME280;60547;48.502;8.996;2023-05-14T04:09:33;97812.00;;;10.30;100.00
72525;BME280;60547;48.502;8.996;2023-05-14T04:11:58;97802.53;;;10.27;100.00
72525;BME280;60547;48.502;8.996;2023-05-14T04:14:24;97816.25;;;10.34;99.60
72525;BME280;60547;48.502;8.996;2023-05-14T04:16:49;97807.47;;;10.36;99.40
72525;BME280;60547;48.502;8.996;2023-05-14T04:19:15;97775.59;;;10.08;100.00
72525;BME280;60547;48.502;8.996;2023-05-14T04:21:40;97819.31;;;10.40;99.02
72525;BME280;60547;48.502;8.996;2023-05-14T04:24:06;97823.22;;;10.43;98.77
72525;BME280;60547;48.502;8.996;2023-05-14T04:26:32;97811.38;;;10.39;98.25
72525;BME280;60547;48.502;8.996;2023-05-14T04:28:57;97775.84;;;10.14;98.47
72525;BME280;60547;48.502;8.996;2023-05-14T04:31:27;97804.28;;;10.38;98.72
72525;BME280;60547;48.502;8.996;2023-05-14T04:33:52;97793.06;;;10.25;99.13
72525;BME280;60547;48.502;8.996;2023-05-14T04:36:18;97811.38;;;10.39;99.68
72525;BME280;60547;48.502;8.996;2023-05-14T04:38:43;97811.13;;;10.33;99.83
72525;BME280;60547;48.502;8.996;2023-05-14T04:41:09;97815.03;;;10.35;99.83
72525;BME280;60547;48.502;8.996;2023-05-14T04:43:35;97808.00;;;10.31;100.00
72525;BME280;60547;48.502;8.996;2023-05-14T04:46:00;97817.75;;;10.39;100.00
72525;BME280;60547;48.502;8.996;2023-05-14T04:48:26;97828.34;;;10.44;99.92
72525;BME280;60547;48.502;8.996;2023-05-14T04:50:52;97798.00;;;10.33;100.00
72525;BME280;60547;48.502;8.996;2023-05-14T04:53:17;97810.97;;;10.40;100.00
72525;BME280;60547;48.502;8.996;2023-05-14T04:55:43;97812.97;;;10.40;100.00
72525;BME280;60547;48.502;8.996;2023-05-14T04:58:08;97813.75;;;10.40;100.00
72525;BME280;60547;48.502;8.996;2023-05-14T05:00:34;97798.69;;;10.38;100.00
72525;BME280;60547;48.502;8.996;2023-05-14T05:02:59;97783.19;;;10.24;100.00
72525;BME280;60547;48.502;8.996;2023-05-14T05:05:25;97815.00;;;10.52;99.55
72525;BME280;60547;48.502;8.996;2023-05-14T05:07:51;97829.38;;;10.50;99.46
72525;BME280;60547;48.502;8.996;2023-05-14T05:10:16;97808.19;;;10.40;99.54
72525;BME280;60547;48.502;8.996;2023-05-14T05:12:42;97816.66;;;10.49;100.00
72525;BME280;60547;48.502;8.996;2023-05-14T05:15:08;97791.47;;;10.40;100.00
72525;BME280;60547;48.502;8.996;2023-05-14T05:17:34;97810.56;;;10.54;99.71
72525;BME280;60547;48.502;8.996;2023-05-14T05:20:02;97787.03;;;10.43;99.41
72525;BME280;60547;48.502;8.996;2023-05-14T05:22:30;97810.22;;;10.52;99.12
72525;BME280;60547;48.502;8.996;2023-05-14T05:24:58;97815.59;;;10.59;98.91
72525;BME280;60547;48.502;8.996;2023-05-14T05:27:24;97805.34;;;10.56;98.60
72525;BME280;60547;48.502;8.996;2023-05-14T05:29:50;97779.56;;;10.40;98.37
72525;BME280;60547;48.502;8.996;2023-05-14T05:32:16;97797.34;;;10.58;98.33
72525;BME280;60547;48.502;8.996;2023-05-14T05:34:42;97805.50;;;10.65;98.00
72525;BME280;60547;48.502;8.996;2023-05-14T05:37:07;97799.59;;;10.63;97.94
72525;BME280;60547;48.502;8.996;2023-05-14T05:39:37;97801.31;;;10.74;97.11
72525;BME280;60547;48.502;8.996;2023-05-14T05:42:04;97811.22;;;10.75;97.17
72525;BME280;60547;48.502;8.996;2023-05-14T05:44:30;97824.06;;;10.85;97.51
72525;BME280;60547;48.502;8.996;2023-05-14T05:46:55;97828.19;;;10.93;97.57
72525;BME280;60547;48.502;8.996;2023-05-14T05:49:22;97814.81;;;10.88;98.00
72525;BME280;60547;48.502;8.996;2023-05-14T05:51:47;97813.25;;;10.87;98.09
72525;BME280;60547;48.502;8.996;2023-05-14T05:54:13;97785.81;;;10.73;97.84
72525;BME280;60547;48.502;8.996;2023-05-14T05:56:39;97794.31;;;10.82;97.83
72525;BME280;60547;48.502;8.996;2023-05-14T05:59:05;97805.00;;;10.83;97.93
72525;BME280;60547;48.502;8.996;2023-05-14T06:01:31;97803.25;;;10.89;98.03
72525;BME280;60547;48.502;8.996;2023-05-14T06:03:56;97808.16;;;10.98;97.98
72525;BME280;60547;48.502;8.996;2023-05-14T06:06:23;97798.78;;;10.92;97.92
72525;BME280;60547;48.502;8.996;2023-05-14T06:08:48;97750.88;;;10.72;97.83
72525;BME280;60547;48.502;8.996;2023-05-14T06:11:14;97814.09;;;11.13;98.01
72525;BME280;60547;48.502;8.996;2023-05-14T06:13:41;97813.22;;;11.16;97.34
72525;BME280;60547;48.502;8.996;2023-05-14T06:16:07;97796.38;;;11.07;96.85
72525;BME280;60547;48.502;8.996;2023-05-14T06:18:39;97793.38;;;11.01;95.09
72525;BME280;60547;48.502;8.996;2023-05-14T06:21:05;97814.34;;;11.18;95.06
72525;BME280;60547;48.502;8.996;2023-05-14T06:23:31;97809.66;;;11.15;95.46
72525;BME280;60547;48.502;8.996;2023-05-14T06:25:56;97822.16;;;11.23;95.51
72525;BME280;60547;48.502;8.996;2023-05-14T06:28:22;97819.47;;;11.20;95.99
72525;BME280;60547;48.502;8.996;2023-05-14T06:30:51;97810.88;;;11.14;96.44
72525;BME280;60547;48.502;8.996;2023-05-14T06:36:58;97811.88;;;11.20;97.05
72525;BME280;60547;48.502;8.996;2023-05-14T06:39:26;97803.75;;;11.13;97.27
72525;BME280;60547;48.502;8.996;2023-05-14T06:41:52;97804.16;;;10.99;97.49
72525;BME280;60547;48.502;8.996;2023-05-14T06:44:18;97812.53;;;11.12;98.30
72525;BME280;60547;48.502;8.996;2023-05-14T06:46:43;97821.53;;;11.03;98.60
72525;BME280;60547;48.502;8.996;2023-05-14T06:49:09;97773.81;;;10.76;99.52
72525;BME280;60547;48.502;8.996;2023-05-14T06:51:35;97819.97;;;11.02;99.08
72525;BME280;60547;48.502;8.996;2023-05-14T06:54:00;97776.94;;;10.78;98.32
72525;BME280;60547;48.502;8.996;2023-05-14T07:00:06;97829.81;;;11.19;98.42
72525;BME280;60547;48.502;8.996;2023-05-14T07:02:32;97829.97;;;11.28;98.65
72525;BME280;60547;48.502;8.996;2023-05-14T07:04:58;97825.94;;;11.29;99.23
72525;BME280;60547;48.502;8.996;2023-05-14T07:07:24;97824.28;;;11.32;99.02
72525;BME280;60547;48.502;8.996;2023-05-14T07:09:50;97831.63;;;11.39;98.80
72525;BME280;60547;48.502;8.996;2023-05-14T07:12:15;97821.03;;;11.33;98.81
72525;BME280;60547;48.502;8.996;2023-05-14T07:14:41;97818.38;;;11.30;99.61
72525;BME280;60547;48.502;8.996;2023-05-14T07:17:06;97825.84;;;11.33;99.61
72525;BME280;60547;48.502;8.996;2023-05-14T07:19:32;97823.84;;;11.33;98.46
72525;BME280;60547;48.502;8.996;2023-05-14T07:21:58;97814.59;;;11.37;97.62
72525;BME280;60547;48.502;8.996;2023-05-14T07:24:24;97807.78;;;11.38;97.50
72525;BME280;60547;48.502;8.996;2023-05-14T07:26:49;97817.59;;;11.42;97.56
72525;BME280;60547;48.502;8.996;2023-05-14T07:29:15;97803.78;;;11.39;98.42
72525;BME280;60547;48.502;8.996;2023-05-14T07:31:41;97811.59;;;11.44;98.51
72525;BME280;60547;48.502;8.996;2023-05-14T07:34:06;97813.81;;;11.49;98.42
72525;BME280;60547;48.502;8.996;2023-05-14T07:36:33;97805.69;;;11.42;98.17
72525;BME280;60547;48.502;8.996;2023-05-14T07:38:59;97806.69;;;11.48;97.61
72525;BME280;60547;48.502;8.996;2023-05-14T07:41:25;97803.91;;;11.48;98.21
72525;BME280;60547;48.502;8.996;2023-05-14T07:43:50;97801.66;;;11.43;98.17
72525;BME280;60547;48.502;8.996;2023-05-14T07:46:16;97811.81;;;11.49;97.54
72525;BME280;60547;48.502;8.996;2023-05-14T07:48:42;97812.59;;;11.50;98.46
72525;BME280;60547;48.502;8.996;2023-05-14T07:51:07;97809.13;;;11.46;98.88
72525;BME280;60547;48.502;8.996;2023-05-14T07:53:33;97806.25;;;11.49;98.94
72525;BME280;60547;48.502;8.996;2023-05-14T07:55:58;97810.59;;;11.63;98.19
72525;BME280;60547;48.502;8.996;2023-05-14T07:58:24;97810.81;;;11.56;98.24
72525;BME280;60547;48.502;8.996;2023-05-14T08:00:52;97807.81;;;11.63;98.39
72525;BME280;60547;48.502;8.996;2023-05-14T08:03:17;97809.69;;;11.66;97.84
72525;BME280;60547;48.502;8.996;2023-05-14T08:05:43;97810.03;;;11.68;97.59
72525;BME280;60547;48.502;8.996;2023-05-14T08:08:09;97809.13;;;11.71;97.63
72525;BME280;60547;48.502;8.996;2023-05-14T08:10:35;97805.72;;;11.80;97.50
72525;BME280;60547;48.502;8.996;2023-05-14T08:13:00;97811.84;;;11.87;96.94
72525;BME280;60547;48.502;8.996;2023-05-14T08:15:26;97808.28;;;11.87;97.77
72525;BME280;60547;48.502;8.996;2023-05-14T08:17:52;97793.56;;;11.86;97.94
72525;BME280;60547;48.502;8.996;2023-05-14T08:20:18;97813.06;;;11.99;99.24
72525;BME280;60547;48.502;8.996;2023-05-14T08:22:43;97809.47;;;12.11;96.57
72525;BME280;60547;48.502;8.996;2023-05-14T08:25:09;97808.81;;;12.07;96.85
72525;BME280;60547;48.502;8.996;2023-05-14T08:27:35;97790.84;;;12.08;96.86
72525;BME280;60547;48.502;8.996;2023-05-14T08:30:01;97801.63;;;12.19;95.32
72525;BME280;60547;48.502;8.996;2023-05-14T08:32:26;97796.63;;;12.14;95.92
72525;BME280;60547;48.502;8.996;2023-05-14T08:34:52;97808.69;;;12.11;95.77
72525;BME280;60547;48.502;8.996;2023-05-14T08:37:18;97797.75;;;12.16;96.38
72525;BME280;60547;48.502;8.996;2023-05-14T08:39:44;97808.22;;;12.25;96.61
72525;BME280;60547;48.502;8.996;2023-05-14T08:42:11;97804.97;;;12.26;93.88
72525;BME280;60547;48.502;8.996;2023-05-14T08:44:46;97806.19;;;12.25;93.96
72525;BME280;60547;48.502;8.996;2023-05-14T08:47:17;97803.81;;;12.37;92.88
72525;BME280;60547;48.502;8.996;2023-05-14T08:49:46;97801.78;;;12.50;92.80
72525;BME280;60547;48.502;8.996;2023-05-14T08:52:15;97791.97;;;12.45;91.53
72525;BME280;60547;48.502;8.996;2023-05-14T08:54:44;97802.13;;;12.74;91.11
72525;BME280;60547;48.502;8.996;2023-05-14T08:57:11;97791.81;;;12.83;92.35
72525;BME280;60547;48.502;8.996;2023-05-14T08:59:37;97788.81;;;12.78;92.20
72525;BME280;60547;48.502;8.996;2023-05-14T09:02:04;97790.69;;;12.81;90.58
72525;BME280;60547;48.502;8.996;2023-05-14T09:04:31;97762.44;;;12.79;89.93
72525;BME280;60547;48.502;8.996;2023-05-14T09:07:00;97781.16;;;12.91;88.78
72525;BME280;60547;48.502;8.996;2023-05-14T09:09:26;97781.66;;;12.77;87.95
72525;BME280;60547;48.502;8.996;2023-05-14T09:11:52;97785.81;;;12.94;89.95
72525;BME280;60547;48.502;8.996;2023-05-14T09:14:19;97788.81;;;12.78;90.96
72525;BME280;60547;48.502;8.996;2023-05-14T09:16:46;97791.72;;;12.74;90.74
72525;BME280;60547;48.502;8.996;2023-05-14T09:19:13;97782.97;;;12.85;89.96
72525;BME280;60547;48.502;8.996;2023-05-14T09:21:40;97784.53;;;12.86;90.24
72525;BME280;60547;48.502;8.996;2023-05-14T09:24:06;97784.53;;;12.86;89.48
72525;BME280;60547;48.502;8.996;2023-05-14T09:26:33;97785.97;;;12.90;89.80
72525;BME280;60547;48.502;8.996;2023-05-14T09:29:00;97789.19;;;13.11;92.92
72525;BME280;60547;48.502;8.996;2023-05-14T09:31:28;97776.44;;;13.32;88.89
72525;BME280;60547;48.502;8.996;2023-05-14T09:33:54;97761.78;;;13.49;86.25
72525;BME280;60547;48.502;8.996;2023-05-14T09:36:20;97760.81;;;13.43;88.41
72525;BME280;60547;48.502;8.996;2023-05-14T09:38:46;97750.75;;;13.46;86.82
72525;BME280;60547;48.502;8.996;2023-05-14T09:41:12;97751.84;;;13.48;86.32
72525;BME280;60547;48.502;8.996;2023-05-14T09:43:37;97769.59;;;13.64;85.19
72525;BME280;60547;48.502;8.996;2023-05-14T09:46:03;97736.75;;;13.46;86.74
72525;BME280;60547;48.502;8.996;2023-05-14T09:48:29;97765.81;;;13.48;85.54
72525;BME280;60547;48.502;8.996;2023-05-14T09:50:55;97771.59;;;13.54;86.32
72525;BME280;60547;48.502;8.996;2023-05-14T09:53:20;97763.84;;;13.58;87.58
72525;BME280;60547;48.502;8.996;2023-05-14T09:55:46;97761.69;;;13.62;85.07
72525;BME280;60547;48.502;8.996;2023-05-14T09:58:12;97748.19;;;13.70;84.86
72525;BME280;60547;48.502;8.996;2023-05-14T10:00:43;97750.47;;;14.11;86.26
72525;BME280;60547;48.502;8.996;2023-05-14T10:03:12;97756.84;;;14.30;83.63
72525;BME280;60547;48.502;8.996;2023-05-14T10:05:40;97743.94;;;14.23;82.04
72525;BME280;60547;48.502;8.996;2023-05-14T10:08:15;97746.28;;;14.25;81.79
72525;BME280;60547;48.502;8.996;2023-05-14T10:10:42;97743.63;;;14.21;81.70
72525;BME280;60547;48.502;8.996;2023-05-14T10:13:12;97733.81;;;14.08;81.98
72525;BME280;60547;48.502;8.996;2023-05-14T10:15:47;97732.91;;;14.11;81.62
72525;BME280;60547;48.502;8.996;2023-05-14T10:18:17;97729.44;;;13.98;82.59
72525;BME280;60547;48.502;8.996;2023-05-14T10:20:47;97751.84;;;14.07;84.50
72525;BME280;60547;48.502;8.996;2023-05-14T10:23:17;97733.34;;;14.09;83.85
72525;BME280;60547;48.502;8.996;2023-05-14T10:25:44;97738.50;;;14.20;82.91
72525;BME280;60547;48.502;8.996;2023-05-14T10:28:10;97728.22;;;14.17;80.92
72525;BME280;60547;48.502;8.996;2023-05-14T10:30:43;97735.72;;;14.38;81.14
72525;BME280;60547;48.502;8.996;2023-05-14T10:33:11;97722.50;;;14.57;81.22
72525;BME280;60547;48.502;8.996;2023-05-14T10:35:59;97713.88;;;15.06;80.45
72525;BME280;60547;48.502;8.996;2023-05-14T10:38:31;97715.91;;;15.48;79.46
72525;BME280;60547;48.502;8.996;2023-05-14T10:40:59;97720.88;;;16.10;74.15
72525;BME280;60547;48.502;8.996;2023-05-14T10:43:26;97715.09;;;15.90;69.16
72525;BME280;60547;48.502;8.996;2023-05-14T10:45:54;97709.53;;;15.80;69.06
72525;BME280;60547;48.502;8.996;2023-05-14T10:48:20;97707.25;;;15.94;70.78
72525;BME280;60547;48.502;8.996;2023-05-14T10:50:47;97710.84;;;16.18;68.71
72525;BME280;60547;48.502;8.996;2023-05-14T10:53:14;97697.47;;;16.13;69.65
72525;BME280;60547;48.502;8.996;2023-05-14T10:55:41;97691.75;;;15.83;68.83
72525;BME280;60547;48.502;8.996;2023-05-14T10:58:08;97691.25;;;15.61;68.60
72525;BME280;60547;48.502;8.996;2023-05-14T11:00:34;97701.81;;;15.66;69.56
72525;BME280;60547;48.502;8.996;2023-05-14T11:03:03;97694.06;;;15.52;68.75
72525;BME280;60547;48.502;8.996;2023-05-14T11:05:30;97688.13;;;15.59;70.27
72525;BME280;60547;48.502;8.996;2023-05-14T11:07:57;97689.41;;;15.49;67.51
72525;BME280;60547;48.502;8.996;2023-05-14T11:10:23;97677.88;;;15.47;68.22
72525;BME280;60547;48.502;8.996;2023-05-14T11:12:51;97682.78;;;15.70;68.58
72525;BME280;60547;48.502;8.996;2023-05-14T11:15:21;97673.28;;;15.68;66.95
72525;BME280;60547;48.502;8.996;2023-05-14T11:17:48;97688.94;;;15.50;67.23
72525;BME280;60547;48.502;8.996;2023-05-14T11:20:14;97671.03;;;15.48;67.92
72525;BME280;60547;48.502;8.996;2023-05-14T11:22:44;97673.53;;;15.46;67.69
72525;BME280;60547;48.502;8.996;2023-05-14T11:25:11;97673.88;;;15.39;68.54
72525;BME280;60547;48.502;8.996;2023-05-14T11:27:40;97665.94;;;15.70;66.70
72525;BME280;60547;48.502;8.996;2023-05-14T11:30:16;97664.28;;;16.65;65.89
72525;BME280;60547;48.502;8.996;2023-05-14T11:32:44;97661.16;;;17.22;66.20
72525;BME280;60547;48.502;8.996;2023-05-14T11:35:11;97657.63;;;17.97;63.50
72525;BME280;60547;48.502;8.996;2023-05-14T11:37:37;97641.72;;;18.14;61.91
72525;BME280;60547;48.502;8.996;2023-05-14T11:40:07;97663.19;;;17.71;59.02
72525;BME280;60547;48.502;8.996;2023-05-14T11:42:37;97659.38;;;17.39;59.78
72525;BME280;60547;48.502;8.996;2023-05-14T11:45:03;97649.91;;;16.63;60.87
72525;BME280;60547;48.502;8.996;2023-05-14T11:47:29;97655.69;;;16.30;61.26
72525;BME280;60547;48.502;8.996;2023-05-14T11:49:56;97661.34;;;16.06;62.32
72525;BME280;60547;48.502;8.996;2023-05-14T11:52:21;97656.75;;;15.94;64.57
72525;BME280;60547;48.502;8.996;2023-05-14T11:54:47;97646.47;;;15.91;64.87
72525;BME280;60547;48.502;8.996;2023-05-14T11:57:18;97655.25;;;15.83;65.90
72525;BME280;60547;48.502;8.996;2023-05-14T11:59:44;97653.03;;;15.88;62.32
72525;BME280;60547;48.502;8.996;2023-05-14T12:02:11;97637.16;;;15.85;61.38
72525;BME280;60547;48.502;8.996;2023-05-14T12:04:38;97643.13;;;15.77;63.62
72525;BME280;60547;48.502;8.996;2023-05-14T12:07:12;97642.41;;;15.92;63.66
72525;BME280;60547;48.502;8.996;2023-05-14T12:09:41;97628.38;;;15.92;64.26
72525;BME280;60547;48.502;8.996;2023-05-14T12:12:09;97629.28;;;15.98;64.95
72525;BME280;60547;48.502;8.996;2023-05-14T12:14:40;97635.03;;;16.18;66.30
72525;BME280;60547;48.502;8.996;2023-05-14T12:17:21;97613.44;;;16.24;68.46
72525;BME280;60547;48.502;8.996;2023-05-14T12:19:48;97616.72;;;16.08;62.18
72525;BME280;60547;48.502;8.996;2023-05-14T12:22:20;97615.00;;;16.25;62.71
72525;BME280;60547;48.502;8.996;2023-05-14T12:24:57;97611.53;;;16.45;61.46
72525;BME280;60547;48.502;8.996;2023-05-14T12:27:27;97609.03;;;16.62;64.63
72525;BME280;60547;48.502;8.996;2023-05-14T12:30:04;97603.81;;;16.69;62.22
72525;BME280;60547;48.502;8.996;2023-05-14T12:32:31;97601.06;;;16.45;60.34
72525;BME280;60547;48.502;8.996;2023-05-14T12:34:58;97610.19;;;16.40;61.88
72525;BME280;60547;48.502;8.996;2023-05-14T12:37:23;97597.50;;;16.45;63.34
72525;BME280;60547;48.502;8.996;2023-05-14T12:39:49;97600.50;;;16.56;63.40
72525;BME280;60547;48.502;8.996;2023-05-14T12:42:14;97591.59;;;16.43;63.47
72525;BME280;60547;48.502;8.996;2023-05-14T12:44:41;97586.94;;;16.40;63.97
72525;BME280;60547;48.502;8.996;2023-05-14T12:47:06;97580.63;;;16.89;63.49
72525;BME280;60547;48.502;8.996;2023-05-14T12:49:32;97573.00;;;17.45;62.01
72525;BME280;60547;48.502;8.996;2023-05-14T12:51:58;97576.94;;;18.40;59.88
72525;BME280;60547;48.502;8.996;2023-05-14T12:54:23;97576.72;;;18.44;57.99
72525;BME280;60547;48.502;8.996;2023-05-14T12:56:49;97566.97;;;17.93;59.26
72525;BME280;60547;48.502;8.996;2023-05-14T12:59:15;97566.25;;;17.37;62.63
72525;BME280;60547;48.502;8.996;2023-05-14T13:01:41;97573.63;;;16.99;62.62
72525;BME280;60547;48.502;8.996;2023-05-14T13:04:08;97573.00;;;16.75;62.29
72525;BME280;60547;48.502;8.996;2023-05-14T13:06:37;97583.84;;;16.53;65.39
72525;BME280;60547;48.502;8.996;2023-05-14T13:09:04;97573.34;;;16.09;68.62